sensor_id;sensor_type;location;lat;lon;timestamp;temperature;humidity
41080;DHT22;26826;50.718;7.114;2023-01-24T00:01:33;3.50;99.90
41080;DHT22;26826;50.718;7.114;2023-01-24T00:11:34;3.40;99.90
41080;DHT22;26826;50.718;7.114;2023-01-24T00:21:35;3.40;99.90
41080;DHT22;26826;50.718;7.114;2023-01-24T00:31:35;3.40;99.90
41080;DHT22;26826;50.718;7.114;2023-01-24T00:41:36;3.40;99.90
41080;DHT22;26826;50.718;7.114;2023-01-24T00:51:36;3.40;99.90
41080;DHT22;26826;50.718;7.114;2023-01-24T01:01:37;3.30;99.90
41080;DHT22;26826;50.718;7.114;2023-01-24T01:11:37;3.40;99.90
41080;DHT22;26826;50.718;7.114;2023-01-24T01:21:41;3.30;99.90
41080;DHT22;26826;50.718;7.114;2023-01-24T01:31:44;3.30;99.90
41080;DHT22;26826;50.718;7.114;2023-01-24T01:41:45;3.30;99.90
41080;DHT22;26826;50.718;7.114;2023-01-24T01:51:48;3.40;99.90
41080;DHT22;26826;50.718;7.114;2023-01-24T02:01:51;3.30;99.90
41080;DHT22;26826;50.718;7.114;2023-01-24T02:11:54;3.30;99.90
41080;DHT22;26826;50.718;7.114;2023-01-24T02:22:06;3.20;99.90
41080;DHT22;26826;50.718;7.114;2023-01-24T02:32:08;3.30;99.90
41080;DHT22;26826;50.718;7.114;2023-01-24T02:42:12;3.20;99.90
41080;DHT22;26826;50.718;7.114;2023-01-24T02:52:13;3.20;99.90
41080;DHT22;26826;50.718;7.114;2023-01-24T03:02:32;3.20;99.90
41080;DHT22;26826;50.718;7.114;2023-01-24T03:12:33;3.20;99.90
41080;DHT22;26826;50.718;7.114;2023-01-24T03:22:52;3.10;99.90
41080;DHT22;26826;50.718;7.114;2023-01-24T03:43:19;3.00;99.90
41080;DHT22;26826;50.718;7.114;2023-01-24T03:53:22;3.00;99.90
41080;DHT22;26826;50.718;7.114;2023-01-24T04:03:25;3.00;99.90
41080;DHT22;26826;50.718;7.114;2023-01-24T04:13:26;3.00;99.90
41080;DHT22;26826;50.718;7.114;2023-01-24T04:23:39;3.00;99.90
41080;DHT22;26826;50.718;7.114;2023-01-24T04:33:46;3.00;99.90
41080;DHT22;26826;50.718;7.114;2023-01-24T04:43:48;3.00;99.90
41080;DHT22;26826;50.718;7.114;2023-01-24T04:53:48;2.90;99.90
41080;DHT22;26826;50.718;7.114;2023-01-24T05:03:49;2.80;99.90
41080;DHT22;26826;50.718;7.114;2023-01-24T05:13:50;2.80;99.90
41080;DHT22;26826;50.718;7.114;2023-01-24T05:23:51;2.80;99.90
41080;DHT22;26826;50.718;7.114;2023-01-24T05:33:53;3.00;99.90
41080;DHT22;26826;50.718;7.114;2023-01-24T05:43:53;2.90;99.90
41080;DHT22;26826;50.718;7.114;2023-01-24T05:53:54;2.80;99.90
41080;DHT22;26826;50.718;7.114;2023-01-24T06:03:54;2.80;99.90
41080;DHT22;26826;50.718;7.114;2023-01-24T06:13:55;2.80;99.90
41080;DHT22;26826;50.718;7.114;2023-01-24T06:23:56;2.70;99.90
41080;DHT22;26826;50.718;7.114;2023-01-24T06:44:34;2.80;99.90
41080;DHT22;26826;50.718;7.114;2023-01-24T06:54:35;2.70;99.90
41080;DHT22;26826;50.718;7.114;2023-01-24T07:04:36;2.70;99.90
41080;DHT22;26826;50.718;7.114;2023-01-24T07:14:36;2.70;99.90
41080;DHT22;26826;50.718;7.114;2023-01-24T07:24:37;2.70;99.90
41080;DHT22;26826;50.718;7.114;2023-01-24T07:34:38;2.70;99.90
41080;DHT22;26826;50.718;7.114;2023-01-24T07:44:38;2.70;99.90
41080;DHT22;26826;50.718;7.114;2023-01-24T07:54:39;2.60;99.90
41080;DHT22;26826;50.718;7.114;2023-01-24T08:04:39;2.60;99.90
41080;DHT22;26826;50.718;7.114;2023-01-24T08:14:40;2.90;99.90
41080;DHT22;26826;50.718;7.114;2023-01-24T08:24:41;2.80;99.90
41080;DHT22;26826;50.718;7.114;2023-01-24T08:34:42;2.80;99.90
41080;DHT22;26826;50.718;7.114;2023-01-24T08:44:42;2.80;99.90
41080;DHT22;26826;50.718;7.114;2023-01-24T08:54:43;3.00;99.90
41080;DHT22;26826;50.718;7.114;2023-01-24T09:04:43;3.00;99.90
41080;DHT22;26826;50.718;7.114;2023-01-24T09:14:44;2.90;99.90
41080;DHT22;26826;50.718;7.114;2023-01-24T09:24:44;2.90;99.90
41080;DHT22;26826;50.718;7.114;2023-01-24T09:34:45;3.00;99.90
41080;DHT22;26826;50.718;7.114;2023-01-24T10:05:14;3.10;99.90
41080;DHT22;26826;50.718;7.114;2023-01-24T10:15:51;3.30;99.90
41080;DHT22;26826;50.718;7.114;2023-01-24T10:36:06;3.40;99.90
41080;DHT22;26826;50.718;7.114;2023-01-24T10:46:25;3.40;99.90
41080;DHT22;26826;50.718;7.114;2023-01-24T10:56:29;3.70;99.90
41080;DHT22;26826;50.718;7.114;2023-01-24T11:06:37;3.60;99.90
41080;DHT22;26826;50.718;7.114;2023-01-24T11:16:42;3.60;99.90
41080;DHT22;26826;50.718;7.114;2023-01-24T11:27:05;3.50;99.90
41080;DHT22;26826;50.718;7.114;2023-01-24T11:37:21;3.60;99.90
41080;DHT22;26826;50.718;7.114;2023-01-24T11:47:35;3.60;99.90
41080;DHT22;26826;50.718;7.114;2023-01-24T11:57:59;3.60;99.90
41080;DHT22;26826;50.718;7.114;2023-01-24T12:08:20;3.60;99.90
41080;DHT22;26826;50.718;7.114;2023-01-24T12:39:12;3.70;99.90
41080;DHT22;26826;50.718;7.114;2023-01-24T12:49:36;3.80;99.90
41080;DHT22;26826;50.718;7.114;2023-01-24T12:59:39;4.00;99.90
41080;DHT22;26826;50.718;7.114;2023-01-24T13:30:48;3.70;99.90
41080;DHT22;26826;50.718;7.114;2023-01-24T13:51:33;3.60;99.90
41080;DHT22;26826;50.718;7.114;2023-01-24T14:01:34;3.70;99.90
41080;DHT22;26826;50.718;7.114;2023-01-24T14:11:55;3.60;99.90
41080;DHT22;26826;50.718;7.114;2023-01-24T14:42:35;3.60;99.90
41080;DHT22;26826;50.718;7.114;2023-01-24T14:52:37;3.30;99.90
41080;DHT22;26826;50.718;7.114;2023-01-24T15:02:40;3.40;99.90
41080;DHT22;26826;50.718;7.114;2023-01-24T15:12:54;3.30;99.90
41080;DHT22;26826;50.718;7.114;2023-01-24T15:23:00;3.30;99.90
41080;DHT22;26826;50.718;7.114;2023-01-24T15:33:10;3.30;99.90
41080;DHT22;26826;50.718;7.114;2023-01-24T15:43:33;3.10;99.90
41080;DHT22;26826;50.718;7.114;2023-01-24T15:53:46;3.20;99.90
41080;DHT22;26826;50.718;7.114;2023-01-24T16:03:47;3.10;99.90
41080;DHT22;26826;50.718;7.114;2023-01-24T16:13:48;3.10;99.90
41080;DHT22;26826;50.718;7.114;2023-01-24T16:23:55;3.20;99.90
41080;DHT22;26826;50.718;7.114;2023-01-24T16:33:56;2.90;99.90
41080;DHT22;26826;50.718;7.114;2023-01-24T16:43:56;3.00;99.90
41080;DHT22;26826;50.718;7.114;2023-01-24T16:53:57;3.10;99.90
41080;DHT22;26826;50.718;7.114;2023-01-24T17:03:58;2.80;99.90
41080;DHT22;26826;50.718;7.114;2023-01-24T17:13:58;2.80;99.90
41080;DHT22;26826;50.718;7.114;2023-01-24T17:23:59;2.90;99.90
41080;DHT22;26826;50.718;7.114;2023-01-24T17:33:59;2.70;99.90
41080;DHT22;26826;50.718;7.114;2023-01-24T17:44:00;2.80;99.90
41080;DHT22;26826;50.718;7.114;2023-01-24T17:54:01;2.50;99.90
41080;DHT22;26826;50.718;7.114;2023-01-24T18:04:01;2.60;99.90
41080;DHT22;26826;50.718;7.114;2023-01-24T18:14:04;2.60;99.90
41080;DHT22;26826;50.718;7.114;2023-01-24T18:24:05;2.60;99.90
41080;DHT22;26826;50.718;7.114;2023-01-24T18:34:08;2.60;99.90
41080;DHT22;26826;50.718;7.114;2023-01-24T18:44:11;2.50;99.90
41080;DHT22;26826;50.718;7.114;2023-01-24T18:54:12;2.70;99.90
41080;DHT22;26826;50.718;7.114;2023-01-24T19:04:13;2.60;99.90
41080;DHT22;26826;50.718;7.114;2023-01-24T19:14:14;2.50;99.90
41080;DHT22;26826;50.718;7.114;2023-01-24T19:24:14;2.50;99.90
41080;DHT22;26826;50.718;7.114;2023-01-24T19:34:15;2.60;99.90
41080;DHT22;26826;50.718;7.114;2023-01-24T19:44:17;2.50;99.90
41080;DHT22;26826;50.718;7.114;2023-01-24T19:54:20;2.30;99.90
41080;DHT22;26826;50.718;7.114;2023-01-24T20:04:20;2.40;99.90
41080;DHT22;26826;50.718;7.114;2023-01-24T20:14:21;2.20;99.90
41080;DHT22;26826;50.718;7.114;2023-01-24T20:24:21;2.20;99.90
41080;DHT22;26826;50.718;7.114;2023-01-24T20:34:22;2.20;99.90
41080;DHT22;26826;50.718;7.114;2023-01-24T20:44:23;2.20;99.90
41080;DHT22;26826;50.718;7.114;2023-01-24T20:54:24;2.30;99.90
41080;DHT22;26826;50.718;7.114;2023-01-24T21:04:24;2.30;99.90
41080;DHT22;26826;50.718;7.114;2023-01-24T21:14:25;2.40;99.90
41080;DHT22;26826;50.718;7.114;2023-01-24T21:24:26;2.40;99.90
41080;DHT22;26826;50.718;7.114;2023-01-24T21:34:27;2.30;99.90
41080;DHT22;26826;50.718;7.114;2023-01-24T21:44:32;2.40;99.90
41080;DHT22;26826;50.718;7.114;2023-01-24T21:54:33;2.30;99.90
41080;DHT22;26826;50.718;7.114;2023-01-24T22:04:35;2.30;99.90
41080;DHT22;26826;50.718;7.114;2023-01-24T22:14:36;2.20;99.90
41080;DHT22;26826;50.718;7.114;2023-01-24T22:24:56;2.30;99.90
41080;DHT22;26826;50.718;7.114;2023-01-24T22:34:58;2.40;99.90
41080;DHT22;26826;50.718;7.114;2023-01-24T22:56:04;2.30;99.90
41080;DHT22;26826;50.718;7.114;2023-01-24T23:06:06;2.30;99.90
41080;DHT22;26826;50.718;7.114;2023-01-24T23:16:12;2.30;99.90
41080;DHT22;26826;50.718;7.114;2023-01-24T23:26:14;2.20;99.90
41080;DHT22;26826;50.718;7.114;2023-01-24T23:36:14;2.10;99.90
41080;DHT22;26826;50.718;7.114;2023-01-24T23:46:15;2.20;99.90
41080;DHT22;26826;50.718;7.114;2023-01-24T23:56:15;1.90;99.90
